Time;durP1;ratioP1;P1;durP2;ratioP2;P2;SDS_P1;SDS_P2;PMS_P1;PMS_P2;Temp;Humidity;BMP_temperature;BMP_pressure;BME280_temperature;BME280_humidity;BME280_pressure;Samples;Min_cycle;Max_cycle;Signal;HPM_P1;HPM_P2
2022/04/07 00:02:23;;;;;;;4.05;3.85;;;;;;;8.55;100.00;99048.63;6121933;23;20017;-72
2022/04/07 00:04:50;;;;;;;3.60;3.50;;;;;;;8.41;100.00;99049.59;6111061;23;20032;-71
2022/04/07 00:07:16;;;;;;;4.25;4.05;;;;;;;8.12;100.00;99008.00;6108217;23;20028;-71
2022/04/07 00:09:43;;;;;;;3.75;3.65;;;;;;;8.36;100.00;99022.94;6096266;23;20049;-72
2022/04/07 00:12:10;;;;;;;3.75;3.65;;;;;;;8.19;100.00;99008.41;6128096;23;20021;-72
2022/04/07 00:14:36;;;;;;;3.80;3.67;;;;;;;8.29;100.00;99035.56;6084936;23;20518;-71
2022/04/07 00:17:03;;;;;;;3.70;3.60;;;;;;;8.28;100.00;99041.75;6127570;23;20099;-71
2022/04/07 00:19:30;;;;;;;5.20;5.00;;;;;;;8.11;100.00;99008.94;6100828;23;20173;-71
2022/04/07 00:21:57;;;;;;;3.85;3.75;;;;;;;8.30;100.00;99034.66;6109100;23;20018;-71
2022/04/07 00:24:24;;;;;;;6.13;5.82;;;;;;;8.09;100.00;98979.47;6112949;23;20046;-71
2022/04/07 00:26:51;;;;;;;4.20;4.00;;;;;;;8.18;100.00;98973.63;6093825;23;20016;-71
2022/04/07 00:29:17;;;;;;;5.18;4.97;;;;;;;7.31;100.00;98810.78;6108568;23;20013;-70
2022/04/07 00:31:44;;;;;;;3.72;3.63;;;;;;;8.58;100.00;98996.16;6108371;23;20058;-71
2022/04/07 00:34:11;;;;;;;4.13;3.92;;;;;;;8.64;100.00;98994.84;6094701;23;20490;-71
2022/04/07 00:36:39;;;;;;;3.80;3.70;;;;;;;8.66;99.88;98992.97;6109722;23;20194;-70
2022/04/07 00:39:06;;;;;;;3.78;3.67;;;;;;;8.79;96.78;98988.53;6108677;23;20348;-71
2022/04/07 00:41:36;;;;;;;4.88;4.68;;;;;;;8.85;94.27;98993.31;6093810;23;20516;-70
2022/04/07 00:44:02;;;;;;;4.00;3.80;;;;;;;8.79;95.34;98981.50;6086479;23;20021;-70
2022/04/07 00:46:28;;;;;;;5.28;5.07;;;;;;;8.81;93.83;98970.09;6094051;23;20507;-71
2022/04/07 00:48:55;;;;;;;4.00;3.80;;;;;;;8.71;94.36;98965.53;6106633;23;20018;-70
2022/04/07 00:51:22;;;;;;;4.72;4.53;;;;;;;8.64;96.34;98963.47;6098637;23;20049;-71
2022/04/07 00:53:48;;;;;;;4.20;4.00;;;;;;;8.29;96.46;98907.50;6078770;23;20368;-71
2022/04/07 00:56:15;;;;;;;4.43;4.22;;;;;;;8.51;95.39;98929.53;6105858;23;20021;-71
2022/04/07 00:58:44;;;;;;;3.80;3.70;;;;;;;8.52;94.98;98937.28;6094687;23;20121;-71
2022/04/07 01:01:11;;;;;;;3.63;3.53;;;;;;;8.76;92.80;98949.53;6093780;23;20567;-71
2022/04/07 01:03:38;;;;;;;3.80;3.70;;;;;;;8.95;90.63;98941.16;6095783;23;20505;-70
2022/04/07 01:06:05;;;;;;;3.83;3.72;;;;;;;8.73;90.12;98916.56;6115580;23;20045;-70
2022/04/07 01:08:31;;;;;;;4.57;4.38;;;;;;;8.95;90.82;98943.78;6105600;23;20228;-70
2022/04/07 01:10:59;;;;;;;3.63;3.53;;;;;;;8.60;89.45;98855.69;6118867;23;20400;-70
2022/04/07 01:13:51;;;;;;;5.43;5.22;;;;;;;9.25;86.23;98909.25;6105495;23;20036;-70
2022/04/07 01:16:19;;;;;;;4.70;4.50;;;;;;;8.73;86.07;98830.25;6108123;23;20041;-70
2022/04/07 01:18:46;;;;;;;3.85;3.70;;;;;;;9.03;87.99;98885.66;6076357;23;20005;-71
2022/04/07 01:21:14;;;;;;;4.65;4.35;;;;;;;9.07;89.13;98916.69;6087987;23;20018;-71
2022/04/07 01:23:47;;;;;;;3.72;3.63;;;;;;;8.85;91.19;98869.53;6064029;23;20014;-71
2022/04/07 01:26:15;;;;;;;4.35;4.15;;;;;;;8.73;92.01;98861.66;6064751;23;20159;-71
2022/04/07 01:28:48;;;;;;;3.70;3.60;;;;;;;8.92;92.60;98902.13;6070897;23;20375;-71
2022/04/07 01:31:15;;;;;;;4.35;4.15;;;;;;;7.88;92.60;98757.19;6074444;23;20022;-71
2022/04/07 01:33:42;;;;;;;4.20;4.00;;;;;;;8.68;92.69;98871.63;6080455;23;20081;-70
2022/04/07 01:36:11;;;;;;;3.60;3.50;;;;;;;8.28;91.94;98800.47;6071757;23;20417;-70
2022/04/07 01:38:38;;;;;;;4.47;4.28;;;;;;;8.96;90.94;98901.81;6071864;23;20173;-70
2022/04/07 01:41:04;;;;;;;4.05;3.90;;;;;;;8.97;91.56;98887.75;6072204;23;20045;-71
2022/04/07 01:43:32;;;;;;;3.58;3.47;;;;;;;9.01;91.40;98896.22;6082703;23;20022;-70
2022/04/07 01:45:59;;;;;;;3.88;3.75;;;;;;;9.01;91.11;98882.31;6078205;23;20107;-71
2022/04/07 01:48:26;;;;;;;5.30;5.10;;;;;;;8.99;90.24;98861.50;6072404;23;20026;-70
2022/04/07 01:50:53;;;;;;;3.63;3.53;;;;;;;9.17;89.24;98891.50;6078427;23;20035;-71
2022/04/07 01:53:20;;;;;;;5.45;5.25;;;;;;;9.18;89.25;98874.84;6083896;23;20474;-71
2022/04/07 01:55:47;;;;;;;4.00;3.80;;;;;;;9.23;89.27;98898.06;6081581;23;20473;-71
2022/04/07 01:58:16;;;;;;;4.63;4.45;;;;;;;9.06;89.67;98857.47;6066312;23;20009;-70
2022/04/07 02:00:42;;;;;;;3.80;3.70;;;;;;;9.07;89.95;98842.59;6072917;23;20511;-70
2022/04/07 02:03:10;;;;;;;3.80;3.70;;;;;;;8.93;89.28;98817.47;6089529;23;20132;-71
2022/04/07 02:05:36;;;;;;;4.00;3.80;;;;;;;9.13;89.44;98853.44;6081846;23;20009;-71
2022/04/07 02:08:03;;;;;;;3.70;3.60;;;;;;;8.96;90.29;98828.56;6072402;23;20285;-71
2022/04/07 02:10:32;;;;;;;4.55;4.35;;;;;;;9.08;90.44;98834.63;6075442;23;20170;-70
2022/04/07 02:12:58;;;;;;;4.00;3.80;;;;;;;9.14;89.66;98851.63;6075834;23;20089;-70
2022/04/07 02:15:26;;;;;;;5.32;5.13;;;;;;;9.03;89.36;98834.13;6060444;23;20018;-70
2022/04/07 02:17:53;;;;;;;3.75;3.65;;;;;;;9.15;88.67;98821.91;6089413;23;20051;-70
2022/04/07 02:20:19;;;;;;;5.30;5.10;;;;;;;9.38;88.57;98849.78;6080627;23;20228;-71
2022/04/07 02:22:46;;;;;;;3.90;3.78;;;;;;;9.36;88.64;98845.59;6101893;23;20006;-71
2022/04/07 02:25:12;;;;;;;3.88;3.75;;;;;;;9.14;88.32;98828.94;6086622;23;20045;-71
2022/04/07 02:27:41;;;;;;;3.60;3.50;;;;;;;9.29;89.04;98836.56;6105555;23;20108;-70
2022/04/07 02:30:10;;;;;;;3.80;3.70;;;;;;;9.22;90.11;98824.88;6114204;23;20261;-70
2022/04/07 02:32:36;;;;;;;3.85;3.72;;;;;;;8.96;90.10;98794.53;6097226;23;20040;-70
2022/04/07 02:35:04;;;;;;;3.70;3.60;;;;;;;9.17;89.15;98827.88;6079065;23;20594;-70
2022/04/07 02:37:30;;;;;;;4.82;4.63;;;;;;;9.05;88.31;98782.53;6102810;23;20019;-70
2022/04/07 02:39:56;;;;;;;3.95;3.80;;;;;;;9.11;87.17;98797.75;6086893;23;20076;-70
2022/04/07 02:42:22;;;;;;;5.50;5.30;;;;;;;9.29;86.92;98818.25;6098771;23;20029;-70
2022/04/07 02:44:49;;;;;;;3.70;3.60;;;;;;;8.80;87.58;98744.34;6073408;23;20316;-71
2022/04/07 02:47:15;;;;;;;6.18;5.85;;;;;;;9.23;87.51;98805.63;6109158;23;20022;-70
2022/04/07 02:49:42;;;;;;;4.00;3.80;;;;;;;9.03;88.09;98776.56;6110523;23;20052;-71
2022/04/07 02:52:10;;;;;;;3.80;3.70;;;;;;;9.17;86.43;98780.75;6101137;23;20041;-71
2022/04/07 02:54:37;;;;;;;3.63;3.53;;;;;;;9.19;87.66;98790.16;6099997;23;21297;-70
2022/04/07 02:57:05;;;;;;;3.83;3.72;;;;;;;9.11;88.35;98773.38;6112297;23;20097;-70
2022/04/07 02:59:34;;;;;;;3.80;3.70;;;;;;;9.18;87.41;98783.25;6102010;23;20528;-70
2022/04/07 03:02:01;;;;;;;4.13;3.92;;;;;;;9.28;87.31;98769.44;6103269;23;20021;-70
2022/04/07 03:04:27;;;;;;;5.38;5.18;;;;;;;9.25;87.25;98765.28;6108807;23;20168;-71
2022/04/07 03:06:54;;;;;;;3.97;3.80;;;;;;;9.23;87.66;98772.44;6110062;23;20123;-71
2022/04/07 03:09:21;;;;;;;5.68;5.45;;;;;;;9.18;87.19;98745.75;6078200;23;20068;-71
2022/04/07 03:11:48;;;;;;;4.10;3.90;;;;;;;9.27;87.20;98759.94;6109295;23;20092;-71
2022/04/07 03:14:15;;;;;;;4.32;4.13;;;;;;;9.29;86.88;98745.78;6107134;23;20426;-71
2022/04/07 03:16:48;;;;;;;3.70;3.60;;;;;;;9.30;87.00;98749.22;6113791;23;20580;-71
2022/04/07 03:19:16;;;;;;;3.80;3.70;;;;;;;8.96;85.97;98681.19;6107566;23;20068;-70
2022/04/07 03:21:43;;;;;;;3.83;3.70;;;;;;;9.08;86.27;98693.34;6084329;23;20017;-71
2022/04/07 03:24:11;;;;;;;3.70;3.60;;;;;;;9.17;87.05;98704.84;6121100;23;20398;-70
2022/04/07 03:26:57;;;;;;;3.67;3.58;;;;;;;9.02;86.60;98678.13;6123511;23;20013;-71
2022/04/07 03:29:24;;;;;;;5.22;5.03;;;;;;;9.29;86.02;98710.91;6115725;23;20017;-71
2022/04/07 03:31:50;;;;;;;4.10;3.90;;;;;;;9.28;86.24;98707.47;6112921;23;20096;-70
2022/04/07 03:34:17;;;;;;;4.00;3.80;;;;;;;9.30;86.32;98694.25;6113026;23;20025;-71
2022/04/07 03:36:43;;;;;;;4.10;3.90;;;;;;;9.24;86.99;98692.97;6104011;23;20093;-70
2022/04/07 03:39:10;;;;;;;3.65;3.55;;;;;;;9.20;87.19;98681.09;6107415;23;20093;-71
2022/04/07 03:41:36;;;;;;;3.97;3.80;;;;;;;9.33;87.52;98683.56;6097394;23;20043;-70
2022/04/07 03:44:03;;;;;;;3.70;3.60;;;;;;;9.07;88.06;98643.75;6104615;23;20455;-72
2022/04/07 03:46:30;;;;;;;4.93;4.72;;;;;;;9.24;88.06;98676.41;6103645;23;20029;-71
2022/04/07 03:48:56;;;;;;;3.80;3.70;;;;;;;9.23;88.36;98680.00;6086757;23;20021;-70
2022/04/07 03:51:23;;;;;;;5.65;5.45;;;;;;;9.10;88.82;98657.41;6090319;23;20487;-70
2022/04/07 03:53:49;;;;;;;3.80;3.70;;;;;;;9.18;88.31;98665.50;6105945;23;20036;-70
2022/04/07 03:56:15;;;;;;;5.18;4.97;;;;;;;9.06;89.17;98642.06;6075496;23;20024;-71
2022/04/07 03:58:42;;;;;;;3.95;3.80;;;;;;;8.12;89.07;98482.88;6113828;23;20038;-70
2022/04/07 04:01:09;;;;;;;4.00;3.80;;;;;;;8.93;89.03;98605.59;6111315;23;20031;-70
2022/04/07 04:03:35;;;;;;;3.80;3.70;;;;;;;9.01;89.27;98616.28;6097865;23;20001;-71
2022/04/07 04:06:02;;;;;;;3.75;3.65;;;;;;;9.18;87.48;98607.91;6114144;23;20021;-70
2022/04/07 04:08:29;;;;;;;5.50;5.30;;;;;;;9.30;88.29;98624.44;6085072;23;20375;-70
2022/04/07 04:10:55;;;;;;;4.10;3.90;;;;;;;9.32;88.80;98629.53;6119982;23;20021;-71
2022/04/07 04:13:22;;;;;;;3.92;3.72;;;;;;;9.21;87.92;98590.31;6099123;23;20028;-71
2022/04/07 04:15:48;;;;;;;3.80;3.70;;;;;;;9.43;87.19;98608.56;6101041;23;20021;-71
2022/04/07 04:18:15;;;;;;;4.43;4.22;;;;;;;9.35;87.73;98587.41;6112142;23;20033;-71
2022/04/07 04:20:41;;;;;;;3.90;3.80;;;;;;;9.35;87.32;98593.47;6081601;23;20030;-70
2022/04/07 04:23:08;;;;;;;3.90;3.80;;;;;;;9.39;86.73;98589.63;6096944;23;20533;-71
2022/04/07 04:25:34;;;;;;;4.75;4.55;;;;;;;9.50;87.38;98601.88;6123476;23;20128;-71
2022/04/07 04:28:01;;;;;;;3.90;3.80;;;;;;;9.36;88.13;98565.50;6110893;23;20093;-71
2022/04/07 04:30:27;;;;;;;5.43;5.22;;;;;;;9.49;87.04;98563.53;6114758;23;20097;-71
2022/04/07 04:32:54;;;;;;;4.40;4.20;;;;;;;9.47;87.62;98541.88;6107314;23;20387;-72
2022/04/07 04:35:20;;;;;;;3.80;3.70;;;;;;;9.54;87.19;98544.81;6107608;23;20021;-71
2022/04/07 04:37:47;;;;;;;3.97;3.78;;;;;;;9.54;86.75;98550.06;6111571;23;20606;-71
2022/04/07 04:40:13;;;;;;;4.03;3.88;;;;;;;8.64;86.15;98391.69;6106185;23;20189;-71
2022/04/07 04:42:41;;;;;;;4.28;4.07;;;;;;;9.73;86.52;98565.09;6109801;23;20033;-71
2022/04/07 04:45:07;;;;;;;5.03;4.82;;;;;;;9.73;86.16;98547.59;6103231;23;20037;-73
2022/04/07 04:47:34;;;;;;;4.40;4.20;;;;;;;9.65;86.36;98515.16;6096870;23;20096;-72
2022/04/07 04:50:04;;;;;;;3.80;3.70;;;;;;;9.56;86.44;98506.25;6089177;23;20025;-72
2022/04/07 04:52:31;;;;;;;5.10;4.90;;;;;;;9.76;86.61;98526.41;6099600;23;20093;-70
2022/04/07 04:54:57;;;;;;;3.83;3.72;;;;;;;9.69;87.17;98508.69;6106307;23;20025;-70
2022/04/07 04:57:24;;;;;;;5.50;5.30;;;;;;;9.41;88.51;98479.56;6110738;23;20019;-72
2022/04/07 04:59:50;;;;;;;4.00;3.80;;;;;;;9.67;89.27;98521.91;6095751;23;20552;-72
2022/04/07 05:02:16;;;;;;;5.32;5.13;;;;;;;9.41;89.63;98473.50;6082466;23;20021;-70
2022/04/07 05:04:48;;;;;;;4.30;4.10;;;;;;;9.23;91.32;98455.75;6118581;23;20080;-74
2022/04/07 05:07:14;;;;;;;4.57;4.40;;;;;;;9.37;92.50;98470.31;6128412;23;20583;-72
2022/04/07 05:09:40;;;;;;;3.67;3.58;;;;;;;9.57;92.07;98485.19;6095151;23;20282;-71
2022/04/07 05:12:07;;;;;;;3.92;3.80;;;;;;;9.37;92.16;98463.28;6114865;23;20096;-71
2022/04/07 05:14:33;;;;;;;3.85;3.75;;;;;;;9.36;93.32;98463.41;6101361;23;20254;-71
2022/04/07 05:17:00;;;;;;;4.95;4.22;;;;;;;9.33;93.13;98459.25;6123672;23;20035;-71
2022/04/07 05:19:26;;;;;;;5.22;5.03;;;;;;;9.50;92.57;98477.97;6100354;23;20088;-70
2022/04/07 05:21:53;;;;;;;3.70;3.60;;;;;;;9.37;92.32;98438.91;6111329;23;20026;-72
2022/04/07 05:24:19;;;;;;;5.68;5.45;;;;;;;9.50;92.21;98467.50;6107890;23;20009;-71
2022/04/07 05:26:46;;;;;;;4.07;3.88;;;;;;;9.51;92.48;98451.66;6118390;23;20349;-70
2022/04/07 05:29:13;;;;;;;4.20;4.00;;;;;;;9.18;91.58;98390.72;6098777;23;20048;-71
2022/04/07 05:31:39;;;;;;;3.97;3.80;;;;;;;9.40;90.29;98422.91;6102373;23;20017;-70
2022/04/07 05:34:06;;;;;;;3.80;3.70;;;;;;;9.62;90.54;98447.31;6109963;23;20029;-70
2022/04/07 05:36:32;;;;;;;4.25;4.05;;;;;;;9.48;91.15;98438.00;6102656;23;20521;-70
2022/04/07 05:38:59;;;;;;;4.22;4.03;;;;;;;9.44;90.68;98423.50;6102709;23;20009;-70
2022/04/07 05:41:25;;;;;;;5.45;5.25;;;;;;;9.61;91.79;98450.91;6106743;23;20045;-71
2022/04/07 05:43:51;;;;;;;4.10;3.90;;;;;;;9.39;91.49;98405.56;6105121;23;20032;-69
2022/04/07 05:46:18;;;;;;;7.90;7.53;;;;;;;9.52;91.33;98414.06;6097581;23;20013;-67
2022/04/07 05:48:45;;;;;;;3.70;3.60;;;;;;;9.60;90.71;98426.47;6090351;23;20030;-70
2022/04/07 05:51:12;;;;;;;3.88;3.78;;;;;;;9.64;89.76;98429.66;6095837;23;20063;-69
2022/04/07 05:53:38;;;;;;;3.72;3.63;;;;;;;9.69;89.07;98422.28;6107610;23;20614;-69
2022/04/07 05:56:05;;;;;;;3.70;3.60;;;;;;;9.63;87.81;98402.66;6101253;23;20372;-69
2022/04/07 05:58:31;;;;;;;4.53;4.32;;;;;;;9.78;88.68;98408.38;6111377;23;20562;-69
2022/04/07 06:00:57;;;;;;;3.83;3.72;;;;;;;9.68;88.18;98376.06;6109640;23;20094;-69
2022/04/07 06:03:24;;;;;;;5.30;5.10;;;;;;;9.59;88.98;98389.00;6105058;23;20017;-69
2022/04/07 06:05:53;;;;;;;4.20;4.00;;;;;;;9.46;89.86;98364.84;6101521;23;20032;-69
2022/04/07 06:08:20;;;;;;;6.10;5.80;;;;;;;9.69;91.44;98404.75;6079032;23;20517;-69
2022/04/07 06:10:46;;;;;;;4.05;3.88;;;;;;;9.49;93.08;98377.66;6113669;23;20049;-71
2022/04/07 06:13:14;;;;;;;4.15;3.95;;;;;;;9.42;94.68;98367.81;6093533;23;20021;-69
2022/04/07 06:15:42;;;;;;;4.30;4.10;;;;;;;9.38;96.91;98382.94;6106820;23;20430;-69
2022/04/07 06:18:08;;;;;;;4.20;4.00;;;;;;;9.37;97.73;98374.28;6096615;23;20479;-68
2022/04/07 06:20:35;;;;;;;4.28;4.07;;;;;;;9.37;97.15;98382.13;6109630;23;20373;-69
2022/04/07 06:23:01;;;;;;;4.07;3.88;;;;;;;9.14;97.83;98334.34;6097456;23;20033;-69
2022/04/07 06:25:28;;;;;;;6.18;5.88;;;;;;;9.07;97.97;98316.69;6069178;23;20290;-69
2022/04/07 06:27:54;;;;;;;4.10;3.90;;;;;;;9.05;98.82;98306.34;6124817;23;20346;-69
2022/04/07 06:30:21;;;;;;;5.28;5.07;;;;;;;9.29;98.74;98341.88;6096747;23;20139;-69
2022/04/07 06:32:49;;;;;;;4.40;4.20;;;;;;;9.36;98.53;98320.28;6102704;23;20013;-69
2022/04/07 06:35:16;;;;;;;5.13;4.93;;;;;;;9.36;97.86;98316.81;6086572;23;20048;-69
2022/04/07 06:37:55;;;;;;;4.20;4.00;;;;;;;9.29;97.52;98290.34;6081447;23;20030;-69
2022/04/07 06:40:23;;;;;;;5.38;5.18;;;;;;;9.54;95.89;98303.94;6072182;23;20013;-69
2022/04/07 06:42:52;;;;;;;3.85;3.75;;;;;;;9.59;95.82;98301.75;6099829;23;20680;-69
2022/04/07 06:45:23;;;;;;;5.00;4.80;;;;;;;9.48;94.19;98255.56;6095587;23;20020;-69
2022/04/07 06:47:50;;;;;;;3.80;3.70;;;;;;;9.65;93.05;98277.66;6099215;23;20041;-68
2022/04/07 06:50:18;;;;;;;4.85;4.65;;;;;;;9.67;93.17;98267.88;6081004;23;20018;-69
2022/04/07 06:52:45;;;;;;;4.00;3.80;;;;;;;9.70;93.00;98254.53;6105211;23;20024;-69
2022/04/07 06:55:14;;;;;;;3.95;3.83;;;;;;;9.71;91.09;98216.06;6107453;23;20030;-69
2022/04/07 06:57:46;;;;;;;4.30;4.10;;;;;;;9.93;90.17;98246.41;6110376;23;20051;-69
2022/04/07 07:00:14;;;;;;;4.65;4.45;;;;;;;9.89;90.04;98235.38;6087885;23;20017;-70
2022/04/07 07:02:40;;;;;;;4.10;3.90;;;;;;;9.70;88.10;98180.34;6102087;23;20042;-69
2022/04/07 07:05:07;;;;;;;4.10;3.90;;;;;;;10.00;87.97;98213.44;6084467;23;20053;-69
2022/04/07 07:07:34;;;;;;;4.55;4.35;;;;;;;9.99;88.01;98201.31;6101050;23;20334;-69
2022/04/07 07:10:00;;;;;;;4.15;3.95;;;;;;;9.98;88.41;98176.06;6113782;23;20092;-69
2022/04/07 07:12:26;;;;;;;5.57;5.38;;;;;;;10.21;87.14;98192.34;6098217;23;20402;-69
2022/04/07 07:14:53;;;;;;;4.10;3.90;;;;;;;9.10;86.26;97994.59;6108640;23;20239;-69
2022/04/07 07:17:19;;;;;;;5.63;5.40;;;;;;;10.19;85.97;98173.31;6105019;23;20446;-69
2022/04/07 07:19:46;;;;;;;4.22;4.03;;;;;;;10.10;85.99;98171.53;6134705;23;20013;-69
2022/04/07 07:22:12;;;;;;;3.88;3.75;;;;;;;10.13;86.74;98156.34;6100464;23;20263;-69
2022/04/07 07:24:38;;;;;;;4.10;3.90;;;;;;;10.19;87.49;98149.72;6115072;23;20061;-69
2022/04/07 07:27:05;;;;;;;4.05;3.85;;;;;;;10.16;88.32;98144.75;6109701;23;20454;-69
2022/04/07 07:29:31;;;;;;;4.65;4.45;;;;;;;9.99;87.82;98091.28;6069609;23;20277;-69
2022/04/07 07:31:57;;;;;;;4.40;4.20;;;;;;;10.30;87.47;98130.41;6107414;23;20088;-69
2022/04/07 07:34:25;;;;;;;5.20;5.00;;;;;;;10.26;87.21;98127.22;6106979;23;20036;-69
2022/04/07 07:36:51;;;;;;;4.30;4.10;;;;;;;10.19;87.68;98116.47;6095314;23;20656;-69
2022/04/07 07:39:18;;;;;;;5.47;5.25;;;;;;;10.21;87.26;98116.34;6121075;23;20009;-69
2022/04/07 07:41:45;;;;;;;4.20;4.00;;;;;;;10.18;87.99;98112.22;6108166;23;20742;-69
2022/04/07 07:44:12;;;;;;;4.18;3.97;;;;;;;10.13;86.61;98069.88;6088585;23;20021;-69
2022/04/07 07:46:38;;;;;;;4.35;4.15;;;;;;;10.10;86.74;98061.47;6104675;23;20025;-69
2022/04/07 07:49:08;;;;;;;4.13;3.92;;;;;;;10.18;88.31;98065.03;6107827;23;20052;-69
2022/04/07 07:51:36;;;;;;;3.97;3.80;;;;;;;10.24;90.04;98065.44;6099385;23;20022;-69
2022/04/07 07:54:02;;;;;;;4.20;4.00;;;;;;;10.11;91.23;98047.41;6094210;23;20046;-69
2022/04/07 07:56:28;;;;;;;5.57;5.38;;;;;;;10.17;91.95;98036.34;6081283;23;20034;-69
2022/04/07 07:59:02;;;;;;;4.10;3.90;;;;;;;10.44;91.19;98053.09;6104191;23;20017;-69
2022/04/07 08:01:29;;;;;;;5.85;5.60;;;;;;;10.54;91.00;98035.53;6092710;23;20026;-69
2022/04/07 08:03:55;;;;;;;4.15;3.95;;;;;;;10.47;89.48;98019.56;6101483;23;20687;-69
2022/04/07 08:06:22;;;;;;;5.55;5.35;;;;;;;10.57;89.40;98040.50;6115320;23;20092;-69
2022/04/07 08:08:48;;;;;;;4.22;4.03;;;;;;;10.21;90.13;97995.78;6113091;23;20077;-69
2022/04/07 08:11:20;;;;;;;5.45;5.25;;;;;;;10.42;91.43;98032.28;6083295;23;20071;-69
2022/04/07 08:13:47;;;;;;;4.35;4.15;;;;;;;10.38;92.91;98008.16;6098403;23;20029;-69
2022/04/07 08:16:13;;;;;;;4.30;4.10;;;;;;;10.27;94.77;97992.59;6109675;23;20312;-70
2022/04/07 08:18:40;;;;;;;4.20;4.00;;;;;;;10.46;96.08;98007.41;6089328;23;20170;-70
2022/04/07 08:21:06;;;;;;;4.22;4.03;;;;;;;10.45;94.74;97986.59;6087429;23;20103;-70
2022/04/07 08:23:32;;;;;;;4.30;4.10;;;;;;;10.68;94.31;97993.06;6091874;23;20100;-70
2022/04/07 08:25:59;;;;;;;4.25;4.05;;;;;;;10.81;93.09;97987.50;6119847;23;20084;-70
2022/04/07 08:28:25;;;;;;;5.40;5.20;;;;;;;10.55;92.44;97922.63;6125968;23;20008;-70
2022/04/07 08:30:52;;;;;;;4.32;4.13;;;;;;;10.63;92.25;97900.09;6108906;23;20036;-69
2022/04/07 08:33:18;;;;;;;5.88;5.60;;;;;;;11.01;90.23;97937.50;6110012;23;20478;-69
2022/04/07 08:35:44;;;;;;;4.32;4.13;;;;;;;11.31;89.53;97952.03;6107938;23;20022;-69
2022/04/07 08:38:15;;;;;;;4.20;4.00;;;;;;;11.33;88.43;97950.06;6107979;23;21053;-69
2022/04/07 08:40:42;;;;;;;4.65;4.45;;;;;;;11.21;87.82;97931.09;6110801;23;20030;-71
2022/04/07 08:43:09;;;;;;;4.25;4.05;;;;;;;11.31;87.98;97910.00;6107698;23;20055;-69
2022/04/07 08:45:36;;;;;;;4.10;3.90;;;;;;;11.45;88.42;97929.66;6104276;23;20011;-71
2022/04/07 08:48:05;;;;;;;4.40;4.20;;;;;;;11.32;90.95;97927.41;6095619;23;20862;-72
2022/04/07 08:50:34;;;;;;;4.82;4.63;;;;;;;11.24;93.65;97946.53;6094920;23;20028;-75
2022/04/07 08:53:01;;;;;;;4.40;4.20;;;;;;;11.17;95.02;97946.31;6106902;23;20306;-71
2022/04/07 08:55:28;;;;;;;5.57;5.38;;;;;;;11.24;95.27;97928.16;6108114;23;20104;-69
2022/04/07 08:57:54;;;;;;;4.20;4.00;;;;;;;10.47;95.69;97788.84;6112267;23;20033;-72
2022/04/07 09:00:20;;;;;;;5.55;5.35;;;;;;;11.60;94.13;97912.31;6101240;23;20035;-70
2022/04/07 09:02:47;;;;;;;4.30;4.10;;;;;;;11.86;92.33;97922.81;6105917;23;20030;-70
2022/04/07 09:05:13;;;;;;;4.47;4.28;;;;;;;11.64;91.21;97870.81;6098165;23;20017;-67
2022/04/07 09:07:40;;;;;;;4.40;4.20;;;;;;;11.03;89.47;97717.75;6099990;23;20024;-66
2022/04/07 09:10:07;;;;;;;4.30;4.10;;;;;;;12.18;89.64;97902.94;6070892;23;20440;-65
2022/04/07 09:12:38;;;;;;;4.82;4.63;;;;;;;12.32;89.43;97889.16;6086439;23;20018;-69
2022/04/07 09:15:06;;;;;;;4.28;4.07;;;;;;;12.46;87.37;97889.53;6116995;23;20481;-68
2022/04/07 09:17:48;;;;;;;4.43;4.22;;;;;;;12.53;87.71;97891.38;6107796;23;20040;-70
2022/04/07 09:20:15;;;;;;;5.20;4.97;;;;;;;12.42;88.70;97838.25;6099776;23;20014;-70
2022/04/07 09:22:42;;;;;;;4.75;4.55;;;;;;;12.72;87.37;97853.41;6103743;23;20089;-70
2022/04/07 09:25:11;;;;;;;4.63;4.43;;;;;;;12.86;86.26;97859.00;6118643;23;20148;-65
2022/04/07 09:27:41;;;;;;;4.50;4.30;;;;;;;13.10;86.67;97840.56;6091441;23;20225;-65
2022/04/07 09:30:12;;;;;;;4.60;4.40;;;;;;;13.48;84.71;97882.19;6111682;23;20062;-70
2022/04/07 09:32:43;;;;;;;4.63;4.43;;;;;;;13.01;83.79;97844.19;6111725;23;20107;-67
2022/04/07 09:35:11;;;;;;;4.70;4.50;;;;;;;13.12;84.86;97882.53;6089852;23;20508;-72
2022/04/07 09:37:40;;;;;;;4.55;4.35;;;;;;;13.20;86.46;97886.97;6102326;23;20022;-68
2022/04/07 09:40:12;;;;;;;4.60;4.40;;;;;;;12.86;87.97;97856.38;6095068;23;20013;-67
2022/04/07 09:42:41;;;;;;;4.75;4.55;;;;;;;12.44;90.91;97858.13;6100279;23;21258;-69
2022/04/07 09:45:12;;;;;;;4.40;4.20;;;;;;;12.29;93.79;97881.63;6105926;23;20033;-70
2022/04/07 09:47:46;;;;;;;4.57;4.38;;;;;;;11.69;96.16;97811.56;6072881;23;20451;-73
2022/04/07 09:50:21;;;;;;;6.45;6.15;;;;;;;11.97;98.01;97875.28;6108419;23;20017;-70
2022/04/07 09:52:57;;;;;;;4.55;4.35;;;;;;;12.02;99.86;97837.16;6108768;23;20040;-70
2022/04/07 09:55:29;;;;;;;5.82;5.57;;;;;;;11.89;99.25;97891.00;6108093;23;20051;-72
2022/04/07 09:57:56;;;;;;;4.40;4.20;;;;;;;11.93;99.38;97862.63;6108920;23;20029;-66
2022/04/07 10:00:23;;;;;;;5.75;5.53;;;;;;;11.88;99.14;97877.97;6100039;23;20519;-70
2022/04/07 10:02:50;;;;;;;4.30;4.10;;;;;;;11.83;100.00;97901.31;6101057;23;20013;-71
2022/04/07 10:05:17;;;;;;;4.40;4.20;;;;;;;11.80;100.00;97886.66;6115460;23;20027;-66
2022/04/07 10:07:48;;;;;;;4.47;4.28;;;;;;;11.51;100.00;97861.56;6105913;23;20022;-72
2022/04/07 10:10:17;;;;;;;5.15;4.95;;;;;;;11.42;100.00;97937.81;6117276;23;20033;-65
2022/04/07 10:12:45;;;;;;;4.50;4.30;;;;;;;11.09;100.00;97941.00;6099156;23;20127;-66
2022/04/07 10:15:13;;;;;;;4.40;4.20;;;;;;;10.93;100.00;97940.88;6103767;23;20029;-74
2022/04/07 10:17:40;;;;;;;4.25;4.05;;;;;;;11.00;100.00;97952.41;6110692;23;20110;-71
2022/04/07 10:20:12;;;;;;;4.30;4.10;;;;;;;10.96;100.00;97970.28;6102783;23;20021;-66
2022/04/07 10:22:47;;;;;;;4.47;4.28;;;;;;;10.96;100.00;97972.03;6099463;23;20157;-66
2022/04/07 10:25:16;;;;;;;4.40;4.20;;;;;;;10.88;100.00;97956.22;6093327;23;20009;-66
2022/04/07 10:27:47;;;;;;;4.15;3.95;;;;;;;10.68;100.00;97952.91;6116272;23;20029;-66
2022/04/07 10:30:16;;;;;;;4.57;4.38;;;;;;;10.78;100.00;97956.28;6111407;23;20033;-66
2022/04/07 10:32:52;;;;;;;4.20;4.00;;;;;;;10.86;100.00;97959.00;6109222;23;20014;-66
2022/04/07 10:35:33;;;;;;;5.95;5.68;;;;;;;11.01;100.00;97951.44;6104539;23;20025;-65
2022/04/07 10:38:01;;;;;;;4.00;3.80;;;;;;;11.04;100.00;97966.06;6108783;23;20092;-66
2022/04/07 10:40:48;;;;;;;4.07;3.88;;;;;;;11.53;100.00;97964.66;6094432;23;20084;-66
2022/04/07 10:43:22;;;;;;;5.03;4.82;;;;;;;11.67;97.64;97979.03;6098113;23;20020;-66
2022/04/07 10:46:10;;;;;;;4.10;3.90;;;;;;;11.40;94.07;97882.00;6119158;23;20092;-71
2022/04/07 10:48:43;;;;;;;4.22;4.03;;;;;;;11.67;91.42;97952.75;6090154;23;20025;-66
2022/04/07 10:51:11;;;;;;;6.03;5.72;;;;;;;10.85;91.91;97818.31;6109677;23;20468;-66
2022/04/07 10:53:39;;;;;;;4.40;4.20;;;;;;;11.53;90.37;97980.41;6111559;23;20439;-66
2022/04/07 10:56:06;;;;;;;4.25;4.05;;;;;;;11.41;92.17;97975.56;6117926;23;20100;-66
2022/04/07 10:58:54;;;;;;;5.13;4.93;;;;;;;11.68;82.37;97969.34;6102105;23;20009;-66
2022/04/07 11:01:30;;;;;;;5.78;5.55;;;;;;;11.98;75.11;97983.84;6107170;23;20401;-66
2022/04/07 11:04:21;;;;;;;4.20;4.00;;;;;;;11.87;72.45;97990.16;6115120;23;20012;-66
2022/04/07 11:07:11;;;;;;;4.20;4.00;;;;;;;12.17;67.11;97983.63;6116526;23;20028;-66
2022/04/07 11:09:57;;;;;;;4.30;4.10;;;;;;;12.22;62.43;97993.66;6113475;23;20029;-65
2022/04/07 11:12:28;;;;;;;6.05;5.75;;;;;;;12.20;63.74;98005.31;6108088;23;20226;-66
2022/04/07 11:15:25;;;;;;;4.60;4.40;;;;;;;12.52;63.58;97986.22;6111917;23;20166;-66
2022/04/07 11:17:53;;;;;;;4.47;4.28;;;;;;;12.62;62.80;98010.59;6122335;23;20406;-66
2022/04/07 11:20:24;;;;;;;5.80;5.55;;;;;;;12.78;64.88;98017.72;6097345;23;20013;-71
2022/04/07 11:23:01;;;;;;;4.80;4.60;;;;;;;12.82;59.69;98010.34;6104467;23;20081;-67
2022/04/07 11:25:30;;;;;;;6.13;5.82;;;;;;;12.91;57.25;98004.94;6101684;23;20093;-66
2022/04/07 11:28:06;;;;;;;18.13;17.23;;;;;;;13.03;57.73;98012.50;5976109;23;20456;-68
2022/04/07 11:30:52;;;;;;;5.15;4.95;;;;;;;13.28;60.92;98021.28;6110696;23;20165;-70
2022/04/07 11:33:27;;;;;;;6.00;5.70;;;;;;;13.18;56.79;98005.63;6058113;23;20043;-66
2022/04/07 11:36:00;;;;;;;4.30;4.10;;;;;;;13.16;59.08;98013.69;6108181;23;20618;-68
2022/04/07 11:38:37;;;;;;;6.05;5.75;;;;;;;13.03;58.50;98023.88;6111088;23;20021;-69
2022/04/07 11:41:09;;;;;;;4.40;4.20;;;;;;;13.03;55.59;97997.56;6112249;23;20077;-69
2022/04/07 11:43:39;;;;;;;4.90;4.70;;;;;;;13.34;54.46;98025.94;6107001;23;20026;-72